createdAt,value
2019-03-28T00:00:20.747Z,10.53
2019-03-28T00:02:49.577Z,9.43
2019-03-28T00:05:17.917Z,9.57
2019-03-28T00:07:46.336Z,9.83
2019-03-28T00:10:14.873Z,9.23
2019-03-28T00:12:43.218Z,9.37
2019-03-28T00:15:11.590Z,9.40
2019-03-28T00:17:40.070Z,8.80
2019-03-28T00:20:08.406Z,9.80
2019-03-28T00:22:44.413Z,9.40
2019-03-28T00:25:13.676Z,9.87
2019-03-28T00:27:42.040Z,9.63
2019-03-28T00:30:10.400Z,9.93
2019-03-28T00:32:38.886Z,9.17
2019-03-28T00:35:07.238Z,9.37
2019-03-28T00:37:35.579Z,9.20
2019-03-28T00:40:05.272Z,8.43
2019-03-28T00:42:33.583Z,8.67
2019-03-28T00:45:01.914Z,8.77
2019-03-28T00:47:30.517Z,9.00
2019-03-28T00:49:58.860Z,8.90
2019-03-28T00:52:27.196Z,9.40
2019-03-28T00:54:56.060Z,9.40
2019-03-28T00:57:24.387Z,9.50
2019-03-28T00:59:52.718Z,8.47
2019-03-28T01:02:21.246Z,9.23
2019-03-28T01:04:49.736Z,9.37
2019-03-28T01:07:18.043Z,9.07
2019-03-28T01:09:46.944Z,8.77
2019-03-28T01:12:15.247Z,7.93
2019-03-28T01:14:43.596Z,8.90
2019-03-28T01:17:12.061Z,8.80
2019-03-28T01:19:40.394Z,8.60
2019-03-28T01:22:08.732Z,7.97
2019-03-28T01:24:37.214Z,7.87
2019-03-28T01:27:05.569Z,8.83
2019-03-28T01:29:33.909Z,8.03
2019-03-28T01:32:02.539Z,8.43
2019-03-28T01:34:30.974Z,9.17
2019-03-28T01:36:59.313Z,8.77
2019-03-28T01:39:27.712Z,8.47
2019-03-28T01:41:56.325Z,8.73
2019-03-28T01:44:24.656Z,8.43
2019-03-28T01:46:53.092Z,8.83
2019-03-28T01:49:21.407Z,8.40
2019-03-28T01:51:49.729Z,8.20
2019-03-28T01:54:18.283Z,8.43
2019-03-28T01:56:46.588Z,8.20
2019-03-28T01:59:14.886Z,8.30
2019-03-28T02:01:43.362Z,8.43
2019-03-28T02:04:11.654Z,9.57
2019-03-28T02:06:39.934Z,9.10
2019-03-28T02:09:08.567Z,9.47
2019-03-28T02:11:36.850Z,9.77
2019-03-28T02:14:05.149Z,8.60
2019-03-28T02:16:35.412Z,9.30
2019-03-28T02:19:03.720Z,8.87
2019-03-28T02:21:32.047Z,8.60
2019-03-28T02:24:01.272Z,10.00
2019-03-28T02:26:29.686Z,9.60
2019-03-28T02:28:58.019Z,10.23
2019-03-28T02:31:26.504Z,9.80
2019-03-28T02:33:54.876Z,9.23
2019-03-28T02:36:23.203Z,8.93
2019-03-28T02:38:51.656Z,8.17
2019-03-28T02:41:19.977Z,9.87
2019-03-28T02:43:48.428Z,9.50
2019-03-28T02:46:16.984Z,9.87
2019-03-28T02:48:45.313Z,9.83
2019-03-28T02:51:13.718Z,10.23
2019-03-28T02:53:42.211Z,10.07
2019-03-28T02:56:10.513Z,10.67
2019-03-28T02:58:38.874Z,9.60
2019-03-28T03:01:07.304Z,10.20
2019-03-28T03:03:35.682Z,11.73
2019-03-28T03:06:04.087Z,11.00
2019-03-28T03:08:33.595Z,10.63
2019-03-28T03:11:02.054Z,12.40
2019-03-28T03:13:30.403Z,11.97
2019-03-28T03:15:58.857Z,12.43
2019-03-28T03:18:27.198Z,12.57
2019-03-28T03:20:55.535Z,10.20
2019-03-28T03:23:24.025Z,10.50
2019-03-28T03:25:52.357Z,10.50
2019-03-28T03:28:20.702Z,10.47
2019-03-28T03:30:49.247Z,10.70
2019-03-28T03:33:17.632Z,11.80
2019-03-28T03:35:45.981Z,10.07
2019-03-28T03:38:14.479Z,11.00
2019-03-28T03:40:42.795Z,10.40
2019-03-28T03:43:11.090Z,10.27
2019-03-28T03:45:40.042Z,10.97
2019-03-28T03:48:08.415Z,10.67
2019-03-28T03:50:36.732Z,10.93
2019-03-28T03:53:05.197Z,10.77
2019-03-28T03:55:33.648Z,10.50
2019-03-28T03:58:15.230Z,10.50
2019-03-28T04:00:33.370Z,11.10
2019-03-28T04:03:03.214Z,10.30
2019-03-28T04:05:31.703Z,11.97
2019-03-28T04:08:00.341Z,12.23
2019-03-28T04:10:28.828Z,11.27
2019-03-28T04:12:57.141Z,11.27
2019-03-28T04:15:25.511Z,11.70
2019-03-28T04:17:53.833Z,12.50
2019-03-28T04:20:22.197Z,12.60
2019-03-28T04:22:50.881Z,13.13
2019-03-28T04:25:19.244Z,12.27
2019-03-28T04:27:47.555Z,12.50
2019-03-28T04:30:16.035Z,12.43
2019-03-28T04:32:44.369Z,14.67
2019-03-28T04:35:12.728Z,13.13
2019-03-28T04:37:41.209Z,12.43
2019-03-28T04:40:09.652Z,13.77
2019-03-28T04:42:37.981Z,12.50
2019-03-28T04:45:06.752Z,12.43
2019-03-28T04:47:36.270Z,16.23
2019-03-28T04:50:04.855Z,14.93
2019-03-28T04:52:33.314Z,14.27
2019-03-28T04:55:01.653Z,15.13
2019-03-28T04:57:29.973Z,14.10
2019-03-28T04:59:58.445Z,14.50
2019-03-28T05:02:26.791Z,15.43
2019-03-28T05:04:55.124Z,14.37
2019-03-28T05:07:23.919Z,16.20
2019-03-28T05:09:52.253Z,16.70
2019-03-28T05:12:20.610Z,16.10
2019-03-28T05:14:49.202Z,15.40
2019-03-28T05:17:17.815Z,16.87
2019-03-28T05:19:46.160Z,16.47
2019-03-28T05:22:14.717Z,18.47
2019-03-28T05:24:43.092Z,17.23
2019-03-28T05:27:11.634Z,16.97
2019-03-28T05:29:40.341Z,17.33
2019-03-28T05:32:08.761Z,16.83
2019-03-28T05:34:37.218Z,17.17
2019-03-28T05:37:05.889Z,18.43
2019-03-28T05:39:34.241Z,16.30
2019-03-28T05:42:02.646Z,16.83
2019-03-28T05:44:31.428Z,17.23
2019-03-28T05:46:59.778Z,16.80
2019-03-28T05:49:28.444Z,16.97
2019-03-28T05:51:56.829Z,16.63
2019-03-28T05:54:25.261Z,16.93
2019-03-28T05:56:53.682Z,17.20
2019-03-28T05:59:22.236Z,18.20
2019-03-28T06:01:50.861Z,18.30
2019-03-28T06:04:19.178Z,17.60
2019-03-28T06:06:47.758Z,18.20
2019-03-28T06:09:16.095Z,16.80
2019-03-28T06:11:44.448Z,17.73
2019-03-28T06:14:13.118Z,17.50
2019-03-28T06:16:41.605Z,16.20
2019-03-28T06:19:09.943Z,17.12
2019-03-28T06:21:39.621Z,17.83
2019-03-28T06:24:08.264Z,16.87
2019-03-28T06:26:36.601Z,15.40
2019-03-28T06:29:05.051Z,17.63
2019-03-28T06:31:33.396Z,18.70
2019-03-28T06:34:01.731Z,16.93
2019-03-28T06:36:30.109Z,19.40
2019-03-28T06:38:58.461Z,17.77
2019-03-28T06:41:26.816Z,18.40
2019-03-28T06:43:55.303Z,18.90
2019-03-28T06:46:23.651Z,17.57
2019-03-28T06:48:51.997Z,18.10
2019-03-28T06:51:20.509Z,17.97
2019-03-28T06:53:49.077Z,18.20
2019-03-28T06:56:17.578Z,19.30
2019-03-28T06:59:41.549Z,18.93
2019-03-28T07:02:09.873Z,17.50
2019-03-28T07:04:38.217Z,18.07
2019-03-28T07:07:06.862Z,18.93
2019-03-28T07:09:35.184Z,17.47
2019-03-28T07:12:03.605Z,17.20
2019-03-28T07:14:32.198Z,19.40
2019-03-28T07:17:00.554Z,19.07
2019-03-28T07:19:28.887Z,16.60
2019-03-28T07:21:57.382Z,16.70
2019-03-28T07:24:25.727Z,17.77
2019-03-28T07:26:54.082Z,17.53
2019-03-28T07:29:22.790Z,16.57
2019-03-28T07:31:51.130Z,16.63
2019-03-28T07:34:19.463Z,16.17
2019-03-28T07:36:48.155Z,16.33
2019-03-28T07:39:18.968Z,15.20
2019-03-28T07:41:46.563Z,15.07
2019-03-28T07:44:14.962Z,15.37
2019-03-28T07:46:43.401Z,17.53
2019-03-28T07:49:11.832Z,16.63
2019-03-28T07:51:40.514Z,17.10
2019-03-28T07:54:08.867Z,15.83
2019-03-28T07:56:38.322Z,16.50
2019-03-28T07:59:06.805Z,15.97
2019-03-28T08:01:35.165Z,15.77
2019-03-28T08:04:03.559Z,15.23
2019-03-28T08:06:32.049Z,14.93
2019-03-28T08:09:00.401Z,15.13
2019-03-28T08:11:28.797Z,14.30
2019-03-28T08:13:57.278Z,15.30
2019-03-28T08:16:28.952Z,13.93
2019-03-28T08:18:57.574Z,14.10
2019-03-28T08:21:25.936Z,13.60
2019-03-28T08:23:54.272Z,13.27
2019-03-28T08:26:22.599Z,14.47
2019-03-28T08:28:51.080Z,13.07
2019-03-28T08:31:19.437Z,13.67
2019-03-28T08:33:47.769Z,14.30
2019-03-28T08:36:16.405Z,14.70
2019-03-28T08:38:46.738Z,12.70
2019-03-28T08:41:15.095Z,13.63
2019-03-28T08:43:43.561Z,13.53
2019-03-28T08:46:11.895Z,14.30
2019-03-28T08:48:40.233Z,14.70
2019-03-28T08:51:08.711Z,14.93
2019-03-28T08:53:37.032Z,13.97
2019-03-28T08:56:05.358Z,13.67
2019-03-28T08:58:37.831Z,14.10
2019-03-28T09:01:05.965Z,13.87
2019-03-28T09:03:34.328Z,15.07
2019-03-28T09:06:02.700Z,14.37
2019-03-28T09:08:31.012Z,14.87
2019-03-28T09:10:59.327Z,14.50
2019-03-28T09:13:27.763Z,15.77
2019-03-28T09:15:56.076Z,13.87
2019-03-28T09:18:24.371Z,14.47
2019-03-28T09:20:53.041Z,13.80
2019-03-28T09:23:22.621Z,12.70
2019-03-28T09:25:50.967Z,14.57
2019-03-28T09:28:19.356Z,13.33
2019-03-28T09:30:49.339Z,13.30
2019-03-28T09:33:17.697Z,14.10
2019-03-28T09:35:46.248Z,12.13
2019-03-28T09:38:14.734Z,12.47
2019-03-28T09:40:43.081Z,13.03
2019-03-28T09:43:11.498Z,10.87
2019-03-28T09:45:39.841Z,11.60
2019-03-28T09:48:11.447Z,11.07
2019-03-28T09:50:38.219Z,10.83
2019-03-28T09:53:06.566Z,10.60
2019-03-28T09:55:34.915Z,9.00
2019-03-28T09:58:03.361Z,9.83
2019-03-28T10:00:33.010Z,10.73
2019-03-28T10:03:01.971Z,9.80
2019-03-28T10:05:30.425Z,9.87
2019-03-28T10:07:58.763Z,10.53
2019-03-28T10:10:27.098Z,9.60
2019-03-28T10:12:55.581Z,10.03
2019-03-28T10:15:23.946Z,10.63
2019-03-28T10:17:52.291Z,10.47
2019-03-28T10:20:20.689Z,10.07
2019-03-28T10:22:49.157Z,10.60
2019-03-28T10:25:17.513Z,10.73
2019-03-28T10:27:46.139Z,9.77
2019-03-28T10:30:14.805Z,9.77
2019-03-28T10:32:43.561Z,9.63
2019-03-28T10:35:13.437Z,9.60
2019-03-28T10:37:41.785Z,8.67
2019-03-28T10:40:10.218Z,8.20
2019-03-28T10:42:38.610Z,7.90
2019-03-28T10:45:06.980Z,8.57
2019-03-28T10:47:35.351Z,9.17
2019-03-28T10:50:04.415Z,8.93
2019-03-28T10:52:32.948Z,7.60
2019-03-28T10:55:01.351Z,7.20
2019-03-28T10:57:32.075Z,8.10
2019-03-28T11:00:00.673Z,7.43
2019-03-28T11:02:29.171Z,7.07
2019-03-28T11:04:57.741Z,7.20
2019-03-28T11:07:26.066Z,6.73
2019-03-28T11:09:54.406Z,6.60
2019-03-28T11:12:24.303Z,6.30
2019-03-28T11:14:57.055Z,6.67
2019-03-28T11:17:25.454Z,6.13
2019-03-28T11:19:55.930Z,5.53
2019-03-28T11:22:23.906Z,6.53
2019-03-28T11:24:52.226Z,6.00
2019-03-28T11:27:20.845Z,6.13
2019-03-28T11:29:49.194Z,6.43
2019-03-28T11:32:18.658Z,6.10
2019-03-28T11:34:47.348Z,5.47
2019-03-28T11:37:25.984Z,6.07
2019-03-28T11:39:46.643Z,6.27
2019-03-28T11:42:15.087Z,6.43
2019-03-28T11:44:43.461Z,5.70
2019-03-28T11:47:11.790Z,6.00
2019-03-28T11:49:40.443Z,5.70
2019-03-28T11:52:08.740Z,5.97
2019-03-28T11:54:37.071Z,5.70
2019-03-28T11:57:06.535Z,6.07
2019-03-28T11:59:34.862Z,5.87
2019-03-28T12:02:19.208Z,5.37
2019-03-28T12:04:33.493Z,5.90
2019-03-28T12:07:01.854Z,5.93
2019-03-28T12:09:30.212Z,5.57
2019-03-28T12:11:59.197Z,6.00
2019-03-28T12:14:27.554Z,6.43
2019-03-28T12:16:55.899Z,6.47
2019-03-28T12:19:24.369Z,6.57
2019-03-28T12:21:52.723Z,6.20
2019-03-28T12:24:21.085Z,5.83
2019-03-28T12:26:49.579Z,6.40
2019-03-28T12:29:18.020Z,6.67
2019-03-28T12:31:46.385Z,6.23
2019-03-28T12:34:14.944Z,5.70
2019-03-28T12:36:43.317Z,6.30
2019-03-28T12:39:11.665Z,6.27
2019-03-28T12:41:40.230Z,5.93
2019-03-28T12:44:08.581Z,6.13
2019-03-28T12:46:36.908Z,6.83
2019-03-28T12:49:05.285Z,5.87
2019-03-28T12:51:33.621Z,6.10
2019-03-28T12:54:02.603Z,5.77
2019-03-28T12:56:31.132Z,6.50
2019-03-28T12:58:59.487Z,6.33
2019-03-28T13:01:27.825Z,6.10
2019-03-28T13:03:56.243Z,6.53
2019-03-28T13:06:24.704Z,6.33
2019-03-28T13:08:53.023Z,6.37
2019-03-28T13:11:23.210Z,6.97
2019-03-28T13:13:51.533Z,6.17
2019-03-28T13:16:19.924Z,6.80
2019-03-28T13:18:48.712Z,6.97
2019-03-28T13:21:17.066Z,6.10
2019-03-28T13:23:45.426Z,5.87
2019-03-28T13:26:13.982Z,6.50
2019-03-28T13:28:42.470Z,6.10
2019-03-28T13:31:10.808Z,6.90
2019-03-28T13:33:39.468Z,5.80
2019-03-28T13:36:09.287Z,5.90
2019-03-28T13:38:37.671Z,5.63
2019-03-28T13:41:06.500Z,6.03
2019-03-28T13:43:34.809Z,5.33
2019-03-28T13:46:04.527Z,5.07
2019-03-28T13:48:34.121Z,5.03
2019-03-28T13:51:02.518Z,5.43
2019-03-28T13:53:39.340Z,5.90
2019-03-28T13:56:03.067Z,6.50
2019-03-28T13:58:31.401Z,5.87
2019-03-28T14:00:59.800Z,5.30
2019-03-28T14:03:30.096Z,5.57
2019-03-28T14:05:58.432Z,5.57
2019-03-28T14:08:29.127Z,5.53
2019-03-28T14:10:57.720Z,5.57
2019-03-28T14:13:26.053Z,6.00
2019-03-28T14:15:54.432Z,6.27
2019-03-28T14:18:24.329Z,6.13
2019-03-28T14:20:52.745Z,6.50
2019-03-28T14:23:21.114Z,6.40
2019-03-28T14:25:49.810Z,7.97
2019-03-28T14:28:18.301Z,7.20
2019-03-28T14:30:46.660Z,7.30
2019-03-28T14:33:16.032Z,7.10
2019-03-28T14:35:46.420Z,6.30
2019-03-28T14:38:14.793Z,6.00
2019-03-28T14:40:43.472Z,6.57
2019-03-28T14:43:16.955Z,6.77
2019-03-28T14:45:45.593Z,6.70
2019-03-28T14:48:15.062Z,7.50
2019-03-28T14:50:43.513Z,6.60
2019-03-28T14:53:12.136Z,7.20
2019-03-28T14:55:42.985Z,7.10
2019-03-28T14:58:11.473Z,6.60
2019-03-28T15:00:46.851Z,7.63
2019-03-28T15:03:25.786Z,7.20
2019-03-28T15:05:47.152Z,7.87
2019-03-28T15:08:15.515Z,8.07
2019-03-28T15:10:44.240Z,7.23
2019-03-28T15:13:12.541Z,8.07
2019-03-28T15:15:41.623Z,6.80
2019-03-28T15:18:10.859Z,7.13
2019-03-28T15:20:39.147Z,6.47
2019-03-28T15:23:07.588Z,10.50
2019-03-28T15:25:35.913Z,6.40
2019-03-28T15:28:04.228Z,5.57
2019-03-28T15:30:32.586Z,6.40
2019-03-28T15:33:00.908Z,5.77
2019-03-28T15:35:38.074Z,5.80
2019-03-28T15:38:06.962Z,5.83
2019-03-28T15:40:35.355Z,7.47
2019-03-28T15:43:03.740Z,8.97
2019-03-28T15:45:32.145Z,6.77
2019-03-28T15:48:00.602Z,8.73
2019-03-28T15:50:28.966Z,6.13
2019-03-28T15:52:57.993Z,6.73
2019-03-28T15:55:26.375Z,5.60
2019-03-28T15:57:54.809Z,5.03
2019-03-28T16:00:24.462Z,4.97
2019-03-28T16:02:52.864Z,5.60
2019-03-28T16:05:21.336Z,5.80
2019-03-28T16:07:49.751Z,10.87
2019-03-28T16:10:18.402Z,6.43
2019-03-28T16:12:47.269Z,5.50
2019-03-28T16:15:16.898Z,7.40
2019-03-28T16:17:46.300Z,6.33
2019-03-28T16:20:14.804Z,5.53
2019-03-28T16:22:43.698Z,6.03
2019-03-28T16:25:12.151Z,6.00
2019-03-28T16:27:40.574Z,6.03
2019-03-28T16:30:09.666Z,7.17
2019-03-28T16:32:38.022Z,5.73
2019-03-28T16:35:06.561Z,6.00
2019-03-28T16:37:34.973Z,4.87
2019-03-28T16:40:04.065Z,5.07
2019-03-28T16:42:32.818Z,5.17
2019-03-28T16:45:01.474Z,5.40
2019-03-28T16:47:31.621Z,5.27
2019-03-28T16:50:00.125Z,4.70
2019-03-28T16:52:28.795Z,5.10
2019-03-28T16:54:57.192Z,5.07
2019-03-28T16:57:25.704Z,5.27
2019-03-28T16:59:54.332Z,4.77
2019-03-28T17:02:22.943Z,4.93
2019-03-28T17:04:51.479Z,5.13
2019-03-28T17:07:21.304Z,4.87
2019-03-28T17:09:49.840Z,5.50
2019-03-28T17:12:19.230Z,4.70
2019-03-28T17:14:49.256Z,4.70
2019-03-28T17:17:17.658Z,4.40
2019-03-28T17:19:46.238Z,4.47
2019-03-28T17:22:15.218Z,4.97
2019-03-28T17:24:43.621Z,4.80
2019-03-28T17:27:12.065Z,4.40
2019-03-28T17:29:40.532Z,4.00
2019-03-28T17:32:08.963Z,4.37
2019-03-28T17:34:37.518Z,4.63
2019-03-28T17:37:06.052Z,5.27
2019-03-28T17:39:34.557Z,4.63
2019-03-28T17:42:06.223Z,4.80
2019-03-28T17:44:34.606Z,4.30
2019-03-28T17:47:03.051Z,4.80
2019-03-28T17:49:31.467Z,4.43
2019-03-28T17:52:00.009Z,4.10
2019-03-28T17:54:28.453Z,4.20
2019-03-28T17:56:56.793Z,4.60
2019-03-28T17:59:25.532Z,4.80
2019-03-28T18:01:54.082Z,4.60
2019-03-28T18:04:23.354Z,4.90
2019-03-28T18:06:52.125Z,5.00
2019-03-28T18:09:20.532Z,4.83
2019-03-28T18:11:48.924Z,4.43
2019-03-28T18:14:17.387Z,4.43
2019-03-28T18:16:47.376Z,4.10
2019-03-28T18:19:17.117Z,4.77
2019-03-28T18:21:46.958Z,4.77
2019-03-28T18:24:16.431Z,4.70
2019-03-28T18:26:45.769Z,4.37
2019-03-28T18:29:14.205Z,5.20
2019-03-28T18:31:50.498Z,4.10
2019-03-28T18:34:13.697Z,4.30
2019-03-28T18:36:42.222Z,5.20
2019-03-28T18:39:10.589Z,4.37
2019-03-28T18:41:40.135Z,4.40
2019-03-28T18:44:10.489Z,4.53
2019-03-28T18:46:38.833Z,3.80
2019-03-28T18:49:09.041Z,5.20
2019-03-28T18:51:37.701Z,4.43
2019-03-28T18:54:06.081Z,4.17
2019-03-28T18:56:36.217Z,4.63
2019-03-28T18:59:04.856Z,4.43
2019-03-28T19:01:33.193Z,4.43
2019-03-28T19:04:01.676Z,4.27
2019-03-28T19:06:30.242Z,4.50
2019-03-28T19:08:58.636Z,4.33
2019-03-28T19:11:27.139Z,3.90
2019-03-28T19:13:55.908Z,3.93
2019-03-28T19:16:24.301Z,4.20
2019-03-28T19:18:53.183Z,4.07
2019-03-28T19:21:21.767Z,4.00
2019-03-28T19:23:50.667Z,3.97
2019-03-28T19:26:19.140Z,4.47
2019-03-28T19:28:47.760Z,3.90
2019-03-28T19:31:16.336Z,4.77
2019-03-28T19:33:44.685Z,4.37
2019-03-28T19:36:17.315Z,5.03
2019-03-28T19:38:46.211Z,4.63
2019-03-28T19:41:16.408Z,4.60
2019-03-28T19:43:44.778Z,4.87
2019-03-28T19:46:13.124Z,4.97
2019-03-28T19:48:41.448Z,5.13
2019-03-28T19:51:11.164Z,5.57
2019-03-28T19:53:39.487Z,4.93
2019-03-28T19:56:08.931Z,4.77
2019-03-28T19:58:38.768Z,4.57
2019-03-28T20:01:09.266Z,4.43
2019-03-28T20:03:38.219Z,5.10
2019-03-28T20:06:06.799Z,4.37
2019-03-28T20:08:35.829Z,5.03
2019-03-28T20:11:04.272Z,5.47
2019-03-28T20:13:32.644Z,5.33
2019-03-28T20:16:02.401Z,5.47
2019-03-28T20:18:30.739Z,5.03
2019-03-28T20:20:59.401Z,5.70
2019-03-28T20:23:28.280Z,5.83
2019-03-28T20:25:58.855Z,5.60
2019-03-28T20:28:27.595Z,5.83
2019-03-28T20:30:55.919Z,5.60
2019-03-28T20:33:25.193Z,6.17
2019-03-28T20:36:11.747Z,6.10
2019-03-28T20:38:24.902Z,5.80
2019-03-28T20:40:53.293Z,6.07
2019-03-28T20:43:22.984Z,6.70
2019-03-28T20:45:51.333Z,6.03
2019-03-28T20:48:20.776Z,5.90
2019-03-28T20:50:49.359Z,8.10
2019-03-28T20:53:19.544Z,8.00
2019-03-28T20:55:47.965Z,6.93
2019-03-28T20:58:16.549Z,7.03
2019-03-28T21:00:45.971Z,7.27
2019-03-28T21:03:15.040Z,7.00
2019-03-28T21:05:43.957Z,7.07
2019-03-28T21:08:12.293Z,7.33
2019-03-28T21:10:40.739Z,7.30
2019-03-28T21:13:09.870Z,6.87
2019-03-28T21:15:40.378Z,6.87
2019-03-28T21:18:08.740Z,6.87
2019-03-28T21:20:39.172Z,7.17
2019-03-28T21:23:10.872Z,7.47
2019-03-28T21:25:39.220Z,7.23
2019-03-28T21:28:07.681Z,7.10
2019-03-28T21:30:46.550Z,6.90
2019-03-28T21:33:07.121Z,6.70
2019-03-28T21:35:35.798Z,6.73
2019-03-28T21:38:04.202Z,7.60
2019-03-28T21:40:32.717Z,7.00
2019-03-28T21:43:01.228Z,6.80
2019-03-28T21:45:29.649Z,6.70
2019-03-28T21:47:59.769Z,9.93
2019-03-28T21:50:28.808Z,7.37
2019-03-28T21:52:57.272Z,7.27
2019-03-28T21:55:27.456Z,6.73
2019-03-28T21:57:55.880Z,7.00
2019-03-28T22:00:24.214Z,7.63
2019-03-28T22:02:52.652Z,6.10
2019-03-28T22:05:21.420Z,5.90
2019-03-28T22:07:49.825Z,5.67
2019-03-28T22:10:18.358Z,5.40
2019-03-28T22:12:47.080Z,6.37
2019-03-28T22:15:15.496Z,6.20
2019-03-28T22:17:43.825Z,7.07
2019-03-28T22:20:12.258Z,7.87
2019-03-28T22:22:43.429Z,6.63
2019-03-28T22:25:12.442Z,6.30
2019-03-28T22:27:42.169Z,6.30
2019-03-28T22:30:10.984Z,6.60
2019-03-28T22:32:39.480Z,24.80
2019-03-28T22:35:09.475Z,10.33
2019-03-28T22:37:37.846Z,8.90
2019-03-28T22:40:07.790Z,6.90
2019-03-28T22:42:36.384Z,6.67
2019-03-28T22:45:06.668Z,6.17
2019-03-28T22:47:35.853Z,6.40
2019-03-28T22:50:05.089Z,5.77
2019-03-28T22:52:33.403Z,6.43
2019-03-28T22:55:01.761Z,6.77
2019-03-28T22:57:30.270Z,6.50
2019-03-28T22:59:58.612Z,6.93
2019-03-28T23:02:28.898Z,6.93
2019-03-28T23:04:58.670Z,6.47
2019-03-28T23:07:27.096Z,6.47
2019-03-28T23:09:55.542Z,6.63
2019-03-28T23:12:23.989Z,6.50
2019-03-28T23:14:54.101Z,8.20
2019-03-28T23:17:22.520Z,7.30
2019-03-28T23:19:50.880Z,8.90
2019-03-28T23:22:19.230Z,7.20
2019-03-28T23:24:47.554Z,7.20
2019-03-28T23:27:17.496Z,6.87
2019-03-28T23:29:47.029Z,7.13
2019-03-28T23:32:15.531Z,6.97
2019-03-28T23:34:43.905Z,6.73
2019-03-28T23:37:24.248Z,7.70
2019-03-28T23:39:42.293Z,7.30
2019-03-28T23:42:12.135Z,7.80
2019-03-28T23:44:40.451Z,7.30
2019-03-28T23:47:09.885Z,7.60
2019-03-28T23:49:40.619Z,7.50
2019-03-28T23:52:09.219Z,6.73
2019-03-28T23:54:37.546Z,6.80
2019-03-28T23:57:06.035Z,7.30
2019-03-28T23:59:35.836Z,7.03
